KSAV

Savannah / Hilton Head International Airport

Savannah, Georgia, USA
METAR KSAV 191053Z 19003KT 10SM FEW030 FEW250 23/22 A2992 RMK AO2 SLP132 CB DSNT SE TCU DSNT E T02330222
Observed Flight Rules
Sep-19 @ 10:53 UTC (10 minutes ago) Visual Flight Rules
Wind Visibility Clouds
190° at 3 knots 10 miles
  • Few at 3,000' AGL
  • Few at 25,000' AGL
Temperatures Readings
Current 23°C / 73°F
Dewpoint 22°C / 72°F
Humidity 94%
Altimeter 29.92" Hg
Pressure 1013.2 hPa
Elevation 14
METAR KSAV 191053Z 19003KT 10SM FEW030 FEW250 23/22 A2992 RMK AO2 SLP132 CB DSNT SE TCU DSNT E T02330222
Observed Flight Rules
Sep-19 @ 10:53 UTC
(10 minutes ago)
VFR
Wind Visibility
190° at 3 knots 10 miles
Clouds
  • Few at 3,000' AGL
  • Few at 25,000' AGL
Temperature Dewpoint
23°C / 73°F 22°C / 72°F
Humidity Altimeter Pressure
94% 29.92" Hg 1013.2 hPa